sensor_id;sensor_type;location;lat;lon;timestamp;temperature;humidity
52725;DHT22;38621;52.830;6.914;2022-08-05T00:00:03;18.50;99.90
52725;DHT22;38621;52.830;6.914;2022-08-05T00:02:30;18.50;99.90
52725;DHT22;38621;52.830;6.914;2022-08-05T00:04:55;18.50;99.90
52725;DHT22;38621;52.830;6.914;2022-08-05T00:07:22;18.40;99.90
52725;DHT22;38621;52.830;6.914;2022-08-05T00:09:47;18.40;99.90
52725;DHT22;38621;52.830;6.914;2022-08-05T00:12:13;18.40;99.90
52725;DHT22;38621;52.830;6.914;2022-08-05T00:14:39;18.30;99.90
52725;DHT22;38621;52.830;6.914;2022-08-05T00:17:04;18.30;99.90
52725;DHT22;38621;52.830;6.914;2022-08-05T00:19:30;18.30;99.90
52725;DHT22;38621;52.830;6.914;2022-08-05T00:21:56;18.30;99.90
52725;DHT22;38621;52.830;6.914;2022-08-05T00:24:22;18.30;99.90
52725;DHT22;38621;52.830;6.914;2022-08-05T00:26:47;18.30;99.90
52725;DHT22;38621;52.830;6.914;2022-08-05T00:29:13;18.20;99.90
52725;DHT22;38621;52.830;6.914;2022-08-05T00:31:39;18.20;99.90
52725;DHT22;38621;52.830;6.914;2022-08-05T00:34:05;18.20;99.90
52725;DHT22;38621;52.830;6.914;2022-08-05T00:36:30;18.20;99.90
52725;DHT22;38621;52.830;6.914;2022-08-05T00:38:56;18.10;99.90
52725;DHT22;38621;52.830;6.914;2022-08-05T00:41:32;18.10;99.90
52725;DHT22;38621;52.830;6.914;2022-08-05T00:43:59;18.10;99.90
52725;DHT22;38621;52.830;6.914;2022-08-05T00:46:25;18.10;99.90
52725;DHT22;38621;52.830;6.914;2022-08-05T00:48:51;18.10;99.90
52725;DHT22;38621;52.830;6.914;2022-08-05T00:51:19;18.10;99.90
52725;DHT22;38621;52.830;6.914;2022-08-05T00:53:45;18.20;99.90
52725;DHT22;38621;52.830;6.914;2022-08-05T00:56:11;18.10;99.90
52725;DHT22;38621;52.830;6.914;2022-08-05T00:58:36;18.20;99.90
52725;DHT22;38621;52.830;6.914;2022-08-05T01:01:03;18.20;99.90
52725;DHT22;38621;52.830;6.914;2022-08-05T01:03:29;18.20;99.90
52725;DHT22;38621;52.830;6.914;2022-08-05T01:05:55;18.10;99.90
52725;DHT22;38621;52.830;6.914;2022-08-05T01:08:21;18.10;99.90
52725;DHT22;38621;52.830;6.914;2022-08-05T01:16:39;18.30;99.90
52725;DHT22;38621;52.830;6.914;2022-08-05T01:22:18;18.30;99.90
52725;DHT22;38621;52.830;6.914;2022-08-05T01:30:27;18.30;99.90
52725;DHT22;38621;52.830;6.914;2022-08-05T01:32:55;18.30;99.90
52725;DHT22;38621;52.830;6.914;2022-08-05T01:35:24;18.40;99.90
52725;DHT22;38621;52.830;6.914;2022-08-05T01:37:53;18.40;99.90
52725;DHT22;38621;52.830;6.914;2022-08-05T01:40:23;18.40;99.90
52725;DHT22;38621;52.830;6.914;2022-08-05T01:42:52;18.40;99.90
52725;DHT22;38621;52.830;6.914;2022-08-05T01:45:19;18.40;99.90
52725;DHT22;38621;52.830;6.914;2022-08-05T01:47:45;18.40;99.90
52725;DHT22;38621;52.830;6.914;2022-08-05T01:50:30;18.30;99.90
52725;DHT22;38621;52.830;6.914;2022-08-05T01:53:02;18.30;99.90
52725;DHT22;38621;52.830;6.914;2022-08-05T01:55:31;18.30;99.90
52725;DHT22;38621;52.830;6.914;2022-08-05T01:57:58;18.30;99.90
52725;DHT22;38621;52.830;6.914;2022-08-05T02:00:26;18.30;99.90
52725;DHT22;38621;52.830;6.914;2022-08-05T02:03:23;18.30;99.90
52725;DHT22;38621;52.830;6.914;2022-08-05T02:05:51;18.30;99.90
52725;DHT22;38621;52.830;6.914;2022-08-05T02:08:18;18.30;99.90
52725;DHT22;38621;52.830;6.914;2022-08-05T02:10:48;18.30;99.90
52725;DHT22;38621;52.830;6.914;2022-08-05T02:13:27;18.30;99.90
52725;DHT22;38621;52.830;6.914;2022-08-05T02:16:03;18.30;99.90
52725;DHT22;38621;52.830;6.914;2022-08-05T02:18:35;18.20;99.90
52725;DHT22;38621;52.830;6.914;2022-08-05T02:21:29;18.20;99.90
52725;DHT22;38621;52.830;6.914;2022-08-05T02:24:04;18.20;99.90
52725;DHT22;38621;52.830;6.914;2022-08-05T02:26:53;18.10;99.90
52725;DHT22;38621;52.830;6.914;2022-08-05T02:29:23;18.10;99.90
52725;DHT22;38621;52.830;6.914;2022-08-05T02:31:54;18.00;99.90
52725;DHT22;38621;52.830;6.914;2022-08-05T02:34:23;18.10;99.90
52725;DHT22;38621;52.830;6.914;2022-08-05T02:36:53;18.10;99.90
52725;DHT22;38621;52.830;6.914;2022-08-05T02:39:21;18.10;99.90
52725;DHT22;38621;52.830;6.914;2022-08-05T02:41:48;18.10;99.90
52725;DHT22;38621;52.830;6.914;2022-08-05T02:44:16;18.10;99.90
52725;DHT22;38621;52.830;6.914;2022-08-05T02:46:44;18.10;99.90
52725;DHT22;38621;52.830;6.914;2022-08-05T02:49:13;18.00;99.90
52725;DHT22;38621;52.830;6.914;2022-08-05T02:51:40;18.00;99.90
52725;DHT22;38621;52.830;6.914;2022-08-05T02:54:08;18.00;99.90
52725;DHT22;38621;52.830;6.914;2022-08-05T02:56:35;18.00;99.90
52725;DHT22;38621;52.830;6.914;2022-08-05T02:59:02;18.00;99.90
52725;DHT22;38621;52.830;6.914;2022-08-05T03:01:29;18.00;99.90
52725;DHT22;38621;52.830;6.914;2022-08-05T03:03:59;18.00;99.90
52725;DHT22;38621;52.830;6.914;2022-08-05T03:06:26;18.00;99.90
52725;DHT22;38621;52.830;6.914;2022-08-05T03:08:52;18.00;99.90
52725;DHT22;38621;52.830;6.914;2022-08-05T03:11:25;18.00;99.90
52725;DHT22;38621;52.830;6.914;2022-08-05T03:13:52;18.00;99.90
52725;DHT22;38621;52.830;6.914;2022-08-05T03:16:19;17.90;99.90
52725;DHT22;38621;52.830;6.914;2022-08-05T03:18:45;17.90;99.90
52725;DHT22;38621;52.830;6.914;2022-08-05T03:21:11;17.80;99.90
52725;DHT22;38621;52.830;6.914;2022-08-05T03:23:39;17.70;99.90
52725;DHT22;38621;52.830;6.914;2022-08-05T03:26:07;17.70;99.90
52725;DHT22;38621;52.830;6.914;2022-08-05T03:28:33;17.70;99.90
52725;DHT22;38621;52.830;6.914;2022-08-05T03:31:00;17.60;99.90
52725;DHT22;38621;52.830;6.914;2022-08-05T03:33:27;17.60;99.90
52725;DHT22;38621;52.830;6.914;2022-08-05T03:35:54;17.70;99.90
52725;DHT22;38621;52.830;6.914;2022-08-05T03:38:21;17.70;99.90
52725;DHT22;38621;52.830;6.914;2022-08-05T03:40:47;17.70;99.90
52725;DHT22;38621;52.830;6.914;2022-08-05T03:43:14;17.60;99.90
52725;DHT22;38621;52.830;6.914;2022-08-05T03:45:40;17.70;99.90
52725;DHT22;38621;52.830;6.914;2022-08-05T03:48:06;17.70;99.90
52725;DHT22;38621;52.830;6.914;2022-08-05T03:50:41;17.70;99.90
52725;DHT22;38621;52.830;6.914;2022-08-05T03:53:11;17.70;99.90
52725;DHT22;38621;52.830;6.914;2022-08-05T03:55:43;17.70;99.90
52725;DHT22;38621;52.830;6.914;2022-08-05T03:58:11;17.70;99.90
52725;DHT22;38621;52.830;6.914;2022-08-05T04:00:41;17.70;99.90
52725;DHT22;38621;52.830;6.914;2022-08-05T04:03:10;17.70;99.90
52725;DHT22;38621;52.830;6.914;2022-08-05T04:05:38;17.70;99.90
52725;DHT22;38621;52.830;6.914;2022-08-05T04:08:09;17.70;99.90
52725;DHT22;38621;52.830;6.914;2022-08-05T04:10:35;17.70;99.90
52725;DHT22;38621;52.830;6.914;2022-08-05T04:13:02;17.70;99.90
52725;DHT22;38621;52.830;6.914;2022-08-05T04:15:28;17.70;99.90
52725;DHT22;38621;52.830;6.914;2022-08-05T04:17:54;17.70;99.90
52725;DHT22;38621;52.830;6.914;2022-08-05T04:20:21;17.70;99.90
52725;DHT22;38621;52.830;6.914;2022-08-05T04:22:47;17.70;99.90
52725;DHT22;38621;52.830;6.914;2022-08-05T04:25:14;17.80;99.90
52725;DHT22;38621;52.830;6.914;2022-08-05T04:27:40;17.80;99.90
52725;DHT22;38621;52.830;6.914;2022-08-05T04:30:06;17.80;99.90
52725;DHT22;38621;52.830;6.914;2022-08-05T04:32:33;17.80;99.90
52725;DHT22;38621;52.830;6.914;2022-08-05T04:34:58;17.80;99.90
52725;DHT22;38621;52.830;6.914;2022-08-05T04:37:24;17.90;99.90
52725;DHT22;38621;52.830;6.914;2022-08-05T04:39:49;17.90;99.90
52725;DHT22;38621;52.830;6.914;2022-08-05T04:42:15;17.90;99.90
52725;DHT22;38621;52.830;6.914;2022-08-05T04:44:41;17.90;99.90
52725;DHT22;38621;52.830;6.914;2022-08-05T04:47:07;17.90;99.90
52725;DHT22;38621;52.830;6.914;2022-08-05T04:49:33;17.90;99.90
52725;DHT22;38621;52.830;6.914;2022-08-05T04:51:59;17.80;99.90
52725;DHT22;38621;52.830;6.914;2022-08-05T04:54:24;17.80;99.90
52725;DHT22;38621;52.830;6.914;2022-08-05T04:56:53;17.80;99.90
52725;DHT22;38621;52.830;6.914;2022-08-05T04:59:19;17.90;99.90
52725;DHT22;38621;52.830;6.914;2022-08-05T05:01:49;17.90;99.90
52725;DHT22;38621;52.830;6.914;2022-08-05T05:04:15;17.90;99.90
52725;DHT22;38621;52.830;6.914;2022-08-05T05:06:41;18.00;99.90
52725;DHT22;38621;52.830;6.914;2022-08-05T05:09:07;17.90;99.90
52725;DHT22;38621;52.830;6.914;2022-08-05T05:11:32;18.00;99.90
52725;DHT22;38621;52.830;6.914;2022-08-05T05:13:58;17.90;99.90
52725;DHT22;38621;52.830;6.914;2022-08-05T05:16:24;17.90;99.90
52725;DHT22;38621;52.830;6.914;2022-08-05T05:18:49;18.00;99.90
52725;DHT22;38621;52.830;6.914;2022-08-05T05:21:15;18.00;99.90
52725;DHT22;38621;52.830;6.914;2022-08-05T05:23:41;18.00;99.90
52725;DHT22;38621;52.830;6.914;2022-08-05T05:26:06;18.00;99.90
52725;DHT22;38621;52.830;6.914;2022-08-05T05:28:32;18.00;99.90
52725;DHT22;38621;52.830;6.914;2022-08-05T05:30:58;18.00;99.90
52725;DHT22;38621;52.830;6.914;2022-08-05T05:33:24;18.00;99.90
52725;DHT22;38621;52.830;6.914;2022-08-05T05:35:49;18.00;99.90
52725;DHT22;38621;52.830;6.914;2022-08-05T05:38:16;18.00;99.90
52725;DHT22;38621;52.830;6.914;2022-08-05T05:40:42;18.10;99.90
52725;DHT22;38621;52.830;6.914;2022-08-05T05:43:08;18.10;99.90
52725;DHT22;38621;52.830;6.914;2022-08-05T05:45:34;18.10;99.90
52725;DHT22;38621;52.830;6.914;2022-08-05T05:48:00;18.10;99.90
52725;DHT22;38621;52.830;6.914;2022-08-05T05:50:26;18.10;99.90
52725;DHT22;38621;52.830;6.914;2022-08-05T05:52:52;18.10;99.90
52725;DHT22;38621;52.830;6.914;2022-08-05T05:55:19;18.10;99.90
52725;DHT22;38621;52.830;6.914;2022-08-05T05:57:46;18.10;99.90
52725;DHT22;38621;52.830;6.914;2022-08-05T06:00:18;18.10;99.90
52725;DHT22;38621;52.830;6.914;2022-08-05T06:02:44;18.20;99.90
52725;DHT22;38621;52.830;6.914;2022-08-05T06:05:13;18.10;99.90
52725;DHT22;38621;52.830;6.914;2022-08-05T06:07:39;18.20;99.90
52725;DHT22;38621;52.830;6.914;2022-08-05T06:10:06;18.20;99.90
52725;DHT22;38621;52.830;6.914;2022-08-05T06:12:33;18.20;99.90
52725;DHT22;38621;52.830;6.914;2022-08-05T06:15:00;18.20;99.90
52725;DHT22;38621;52.830;6.914;2022-08-05T06:17:26;18.20;99.90
52725;DHT22;38621;52.830;6.914;2022-08-05T06:19:52;18.20;99.90
52725;DHT22;38621;52.830;6.914;2022-08-05T06:22:23;18.20;99.90
52725;DHT22;38621;52.830;6.914;2022-08-05T06:24:49;18.20;99.90
52725;DHT22;38621;52.830;6.914;2022-08-05T06:27:14;18.20;99.90
52725;DHT22;38621;52.830;6.914;2022-08-05T06:29:40;18.20;99.90
52725;DHT22;38621;52.830;6.914;2022-08-05T06:32:07;18.20;99.90
52725;DHT22;38621;52.830;6.914;2022-08-05T06:34:32;18.30;99.90
52725;DHT22;38621;52.830;6.914;2022-08-05T06:36:58;18.40;99.90
52725;DHT22;38621;52.830;6.914;2022-08-05T06:39:24;18.40;99.90
52725;DHT22;38621;52.830;6.914;2022-08-05T06:41:50;18.40;99.90
52725;DHT22;38621;52.830;6.914;2022-08-05T06:44:16;18.40;99.90
52725;DHT22;38621;52.830;6.914;2022-08-05T06:46:42;18.40;99.90
52725;DHT22;38621;52.830;6.914;2022-08-05T06:49:07;18.50;99.90
52725;DHT22;38621;52.830;6.914;2022-08-05T06:51:33;18.50;99.90
52725;DHT22;38621;52.830;6.914;2022-08-05T06:54:00;18.50;99.90
52725;DHT22;38621;52.830;6.914;2022-08-05T06:56:27;18.50;99.90
52725;DHT22;38621;52.830;6.914;2022-08-05T06:58:53;18.60;99.90
52725;DHT22;38621;52.830;6.914;2022-08-05T07:01:19;18.60;99.90
52725;DHT22;38621;52.830;6.914;2022-08-05T07:03:45;18.60;99.90
52725;DHT22;38621;52.830;6.914;2022-08-05T07:06:11;18.60;99.90
52725;DHT22;38621;52.830;6.914;2022-08-05T07:08:36;18.70;99.90
52725;DHT22;38621;52.830;6.914;2022-08-05T07:11:02;18.70;99.90
52725;DHT22;38621;52.830;6.914;2022-08-05T07:13:29;18.70;99.90
52725;DHT22;38621;52.830;6.914;2022-08-05T07:16:13;18.80;99.90
52725;DHT22;38621;52.830;6.914;2022-08-05T07:18:58;18.70;99.90
52725;DHT22;38621;52.830;6.914;2022-08-05T07:21:23;18.80;99.90
52725;DHT22;38621;52.830;6.914;2022-08-05T07:23:49;18.80;99.90
52725;DHT22;38621;52.830;6.914;2022-08-05T07:26:15;18.80;99.90
52725;DHT22;38621;52.830;6.914;2022-08-05T07:28:40;18.90;99.90
52725;DHT22;38621;52.830;6.914;2022-08-05T07:31:07;18.90;99.90
52725;DHT22;38621;52.830;6.914;2022-08-05T07:33:32;18.90;99.90
52725;DHT22;38621;52.830;6.914;2022-08-05T07:35:58;19.00;99.90
52725;DHT22;38621;52.830;6.914;2022-08-05T07:38:25;19.00;99.90
52725;DHT22;38621;52.830;6.914;2022-08-05T07:40:50;19.00;99.90
52725;DHT22;38621;52.830;6.914;2022-08-05T07:43:16;19.10;99.90
52725;DHT22;38621;52.830;6.914;2022-08-05T07:45:42;19.10;99.90
52725;DHT22;38621;52.830;6.914;2022-08-05T07:48:09;19.10;99.90
52725;DHT22;38621;52.830;6.914;2022-08-05T07:50:35;19.20;99.90
52725;DHT22;38621;52.830;6.914;2022-08-05T07:53:01;19.30;99.90
52725;DHT22;38621;52.830;6.914;2022-08-05T07:55:26;19.40;99.90
52725;DHT22;38621;52.830;6.914;2022-08-05T07:57:52;19.50;99.90
52725;DHT22;38621;52.830;6.914;2022-08-05T08:00:18;19.60;99.90
52725;DHT22;38621;52.830;6.914;2022-08-05T08:02:44;19.60;99.90
52725;DHT22;38621;52.830;6.914;2022-08-05T08:05:10;19.50;99.90
52725;DHT22;38621;52.830;6.914;2022-08-05T08:07:35;19.50;99.90
52725;DHT22;38621;52.830;6.914;2022-08-05T08:10:02;19.50;99.90
52725;DHT22;38621;52.830;6.914;2022-08-05T08:12:28;19.60;99.90
52725;DHT22;38621;52.830;6.914;2022-08-05T08:14:54;19.70;99.90
52725;DHT22;38621;52.830;6.914;2022-08-05T08:17:20;19.70;99.90
52725;DHT22;38621;52.830;6.914;2022-08-05T08:19:46;19.70;99.90
52725;DHT22;38621;52.830;6.914;2022-08-05T08:22:11;19.80;99.90
52725;DHT22;38621;52.830;6.914;2022-08-05T08:24:37;19.80;99.90
52725;DHT22;38621;52.830;6.914;2022-08-05T08:27:04;19.90;99.90
52725;DHT22;38621;52.830;6.914;2022-08-05T08:29:30;19.90;99.90
52725;DHT22;38621;52.830;6.914;2022-08-05T08:31:56;19.90;99.90
52725;DHT22;38621;52.830;6.914;2022-08-05T08:34:24;20.00;99.90
52725;DHT22;38621;52.830;6.914;2022-08-05T08:36:50;20.10;99.90
52725;DHT22;38621;52.830;6.914;2022-08-05T08:39:16;20.20;99.90
52725;DHT22;38621;52.830;6.914;2022-08-05T08:41:47;20.20;99.90
52725;DHT22;38621;52.830;6.914;2022-08-05T08:44:17;20.20;99.90
52725;DHT22;38621;52.830;6.914;2022-08-05T08:46:44;20.20;99.90
52725;DHT22;38621;52.830;6.914;2022-08-05T08:49:15;20.20;99.90
52725;DHT22;38621;52.830;6.914;2022-08-05T08:51:48;20.20;99.90
52725;DHT22;38621;52.830;6.914;2022-08-05T08:54:16;20.20;99.90
52725;DHT22;38621;52.830;6.914;2022-08-05T08:56:42;20.20;99.90
52725;DHT22;38621;52.830;6.914;2022-08-05T08:59:07;20.10;99.90
52725;DHT22;38621;52.830;6.914;2022-08-05T09:01:33;20.10;99.90
52725;DHT22;38621;52.830;6.914;2022-08-05T09:03:59;20.10;99.90
52725;DHT22;38621;52.830;6.914;2022-08-05T09:06:27;20.20;99.90
52725;DHT22;38621;52.830;6.914;2022-08-05T09:08:53;20.20;99.90
52725;DHT22;38621;52.830;6.914;2022-08-05T09:11:19;20.20;99.90
52725;DHT22;38621;52.830;6.914;2022-08-05T09:13:45;20.20;99.90
52725;DHT22;38621;52.830;6.914;2022-08-05T09:16:12;20.20;99.90
52725;DHT22;38621;52.830;6.914;2022-08-05T09:18:38;20.20;99.90
52725;DHT22;38621;52.830;6.914;2022-08-05T09:21:04;20.20;99.90
52725;DHT22;38621;52.830;6.914;2022-08-05T09:23:30;20.20;99.90
52725;DHT22;38621;52.830;6.914;2022-08-05T09:26:07;20.20;99.90
52725;DHT22;38621;52.830;6.914;2022-08-05T09:28:36;20.20;99.90
52725;DHT22;38621;52.830;6.914;2022-08-05T09:31:12;20.20;99.90
52725;DHT22;38621;52.830;6.914;2022-08-05T09:33:54;20.30;99.90
52725;DHT22;38621;52.830;6.914;2022-08-05T09:36:21;20.30;99.90
52725;DHT22;38621;52.830;6.914;2022-08-05T09:39:02;20.30;99.90
52725;DHT22;38621;52.830;6.914;2022-08-05T09:41:28;20.30;99.90
52725;DHT22;38621;52.830;6.914;2022-08-05T09:43:54;20.30;99.90
52725;DHT22;38621;52.830;6.914;2022-08-05T09:46:25;20.40;99.90
52725;DHT22;38621;52.830;6.914;2022-08-05T09:48:52;20.40;99.90
52725;DHT22;38621;52.830;6.914;2022-08-05T09:51:30;20.50;99.90
52725;DHT22;38621;52.830;6.914;2022-08-05T09:53:57;20.60;99.90
52725;DHT22;38621;52.830;6.914;2022-08-05T09:56:34;20.60;99.90
52725;DHT22;38621;52.830;6.914;2022-08-05T10:01:31;20.70;99.90
52725;DHT22;38621;52.830;6.914;2022-08-05T10:04:13;20.70;99.90
52725;DHT22;38621;52.830;6.914;2022-08-05T10:06:40;20.70;99.90
52725;DHT22;38621;52.830;6.914;2022-08-05T10:09:10;20.70;99.90
52725;DHT22;38621;52.830;6.914;2022-08-05T10:11:37;20.70;99.90
52725;DHT22;38621;52.830;6.914;2022-08-05T10:14:23;20.90;99.90
52725;DHT22;38621;52.830;6.914;2022-08-05T10:16:50;21.00;99.90
52725;DHT22;38621;52.830;6.914;2022-08-05T10:19:17;21.00;99.90
52725;DHT22;38621;52.830;6.914;2022-08-05T10:21:43;21.10;99.90
52725;DHT22;38621;52.830;6.914;2022-08-05T10:24:11;21.10;99.90
52725;DHT22;38621;52.830;6.914;2022-08-05T10:26:41;21.10;99.90
52725;DHT22;38621;52.830;6.914;2022-08-05T10:29:08;21.30;99.90
52725;DHT22;38621;52.830;6.914;2022-08-05T10:31:34;21.50;99.90
52725;DHT22;38621;52.830;6.914;2022-08-05T10:34:01;21.80;99.90
52725;DHT22;38621;52.830;6.914;2022-08-05T10:36:27;22.00;99.90
52725;DHT22;38621;52.830;6.914;2022-08-05T10:38:59;22.00;99.90
52725;DHT22;38621;52.830;6.914;2022-08-05T10:41:31;21.80;99.90
52725;DHT22;38621;52.830;6.914;2022-08-05T10:44:02;21.60;99.90
52725;DHT22;38621;52.830;6.914;2022-08-05T10:47:09;21.50;99.90
52725;DHT22;38621;52.830;6.914;2022-08-05T10:50:05;21.60;99.90
52725;DHT22;38621;52.830;6.914;2022-08-05T10:52:45;21.70;99.90
52725;DHT22;38621;52.830;6.914;2022-08-05T10:55:16;21.70;99.90
52725;DHT22;38621;52.830;6.914;2022-08-05T10:57:44;21.80;99.90
52725;DHT22;38621;52.830;6.914;2022-08-05T11:00:14;22.00;99.90
52725;DHT22;38621;52.830;6.914;2022-08-05T11:05:30;22.30;99.90
52725;DHT22;38621;52.830;6.914;2022-08-05T11:08:04;22.40;99.90
52725;DHT22;38621;52.830;6.914;2022-08-05T11:10:32;22.40;99.90
52725;DHT22;38621;52.830;6.914;2022-08-05T11:12:59;22.50;99.90
52725;DHT22;38621;52.830;6.914;2022-08-05T11:15:27;22.50;99.90
52725;DHT22;38621;52.830;6.914;2022-08-05T11:20:44;22.70;99.90
52725;DHT22;38621;52.830;6.914;2022-08-05T11:26:20;22.60;99.90
52725;DHT22;38621;52.830;6.914;2022-08-05T11:28:50;22.60;99.90
52725;DHT22;38621;52.830;6.914;2022-08-05T11:31:17;22.60;99.90
52725;DHT22;38621;52.830;6.914;2022-08-05T11:36:16;22.60;99.90
52725;DHT22;38621;52.830;6.914;2022-08-05T11:41:28;22.70;99.90
52725;DHT22;38621;52.830;6.914;2022-08-05T11:44:07;22.70;99.90
52725;DHT22;38621;52.830;6.914;2022-08-05T11:46:50;22.70;97.30
52725;DHT22;38621;52.830;6.914;2022-08-05T11:49:20;22.60;98.50
52725;DHT22;38621;52.830;6.914;2022-08-05T11:51:50;22.60;98.20
52725;DHT22;38621;52.830;6.914;2022-08-05T11:54:24;22.60;97.70
52725;DHT22;38621;52.830;6.914;2022-08-05T11:56:53;22.70;97.00
52725;DHT22;38621;52.830;6.914;2022-08-05T11:59:25;22.70;97.10
52725;DHT22;38621;52.830;6.914;2022-08-05T12:01:56;22.80;93.80
52725;DHT22;38621;52.830;6.914;2022-08-05T12:04:22;22.90;94.90
52725;DHT22;38621;52.830;6.914;2022-08-05T12:06:49;22.80;94.90
52725;DHT22;38621;52.830;6.914;2022-08-05T12:09:17;22.80;94.40
52725;DHT22;38621;52.830;6.914;2022-08-05T12:11:44;22.60;94.20
52725;DHT22;38621;52.830;6.914;2022-08-05T12:14:11;22.60;94.00
52725;DHT22;38621;52.830;6.914;2022-08-05T12:16:42;22.70;93.30
52725;DHT22;38621;52.830;6.914;2022-08-05T12:19:10;22.60;92.70
52725;DHT22;38621;52.830;6.914;2022-08-05T12:21:56;22.50;92.80
52725;DHT22;38621;52.830;6.914;2022-08-05T12:24:22;22.30;92.60
52725;DHT22;38621;52.830;6.914;2022-08-05T12:26:49;22.20;94.00
52725;DHT22;38621;52.830;6.914;2022-08-05T12:29:23;22.20;94.40
52725;DHT22;38621;52.830;6.914;2022-08-05T12:34:16;22.20;94.30
52725;DHT22;38621;52.830;6.914;2022-08-05T12:36:43;22.30;94.80
52725;DHT22;38621;52.830;6.914;2022-08-05T12:39:09;22.40;95.10
52725;DHT22;38621;52.830;6.914;2022-08-05T12:41:37;22.40;94.90
52725;DHT22;38621;52.830;6.914;2022-08-05T12:44:09;22.50;95.00
52725;DHT22;38621;52.830;6.914;2022-08-05T12:46:37;22.50;94.60
52725;DHT22;38621;52.830;6.914;2022-08-05T12:49:12;22.40;95.00
52725;DHT22;38621;52.830;6.914;2022-08-05T12:51:58;22.40;94.50
52725;DHT22;38621;52.830;6.914;2022-08-05T12:54:29;22.40;94.80
52725;DHT22;38621;52.830;6.914;2022-08-05T12:57:04;22.50;95.20
52725;DHT22;38621;52.830;6.914;2022-08-05T12:59:42;22.40;95.40
52725;DHT22;38621;52.830;6.914;2022-08-05T13:02:09;22.30;95.60
52725;DHT22;38621;52.830;6.914;2022-08-05T13:04:38;22.30;95.50
52725;DHT22;38621;52.830;6.914;2022-08-05T13:07:13;22.20;95.00
52725;DHT22;38621;52.830;6.914;2022-08-05T13:09:40;22.10;94.40
52725;DHT22;38621;52.830;6.914;2022-08-05T13:12:13;22.00;94.80
52725;DHT22;38621;52.830;6.914;2022-08-05T13:14:43;21.90;94.70
52725;DHT22;38621;52.830;6.914;2022-08-05T13:20:08;21.80;95.10
52725;DHT22;38621;52.830;6.914;2022-08-05T13:22:37;21.90;95.80
52725;DHT22;38621;52.830;6.914;2022-08-05T13:25:07;21.90;96.00
52725;DHT22;38621;52.830;6.914;2022-08-05T13:27:36;21.80;96.20
52725;DHT22;38621;52.830;6.914;2022-08-05T13:30:03;21.70;96.60
52725;DHT22;38621;52.830;6.914;2022-08-05T13:32:31;21.50;96.80
52725;DHT22;38621;52.830;6.914;2022-08-05T13:34:57;21.50;96.80
52725;DHT22;38621;52.830;6.914;2022-08-05T13:37:23;21.40;96.20
52725;DHT22;38621;52.830;6.914;2022-08-05T13:39:53;21.50;96.50
52725;DHT22;38621;52.830;6.914;2022-08-05T13:42:21;21.40;96.10
52725;DHT22;38621;52.830;6.914;2022-08-05T13:44:53;21.30;96.40
52725;DHT22;38621;52.830;6.914;2022-08-05T13:47:19;21.30;96.40
52725;DHT22;38621;52.830;6.914;2022-08-05T13:49:45;21.40;96.70
52725;DHT22;38621;52.830;6.914;2022-08-05T13:52:15;21.50;97.10
52725;DHT22;38621;52.830;6.914;2022-08-05T13:54:41;21.70;97.20
52725;DHT22;38621;52.830;6.914;2022-08-05T13:57:11;21.80;96.60
52725;DHT22;38621;52.830;6.914;2022-08-05T13:59:38;21.90;96.10
52725;DHT22;38621;52.830;6.914;2022-08-05T14:02:06;21.90;95.70
52725;DHT22;38621;52.830;6.914;2022-08-05T14:04:37;21.90;95.50
52725;DHT22;38621;52.830;6.914;2022-08-05T14:07:27;22.00;95.70
52725;DHT22;38621;52.830;6.914;2022-08-05T14:09:53;22.00;94.90
52725;DHT22;38621;52.830;6.914;2022-08-05T14:12:19;21.90;94.70
52725;DHT22;38621;52.830;6.914;2022-08-05T14:14:45;21.80;95.00
52725;DHT22;38621;52.830;6.914;2022-08-05T14:17:11;21.70;95.40
52725;DHT22;38621;52.830;6.914;2022-08-05T14:19:38;21.60;95.60
52725;DHT22;38621;52.830;6.914;2022-08-05T14:22:03;21.50;95.90
52725;DHT22;38621;52.830;6.914;2022-08-05T14:24:29;21.50;95.80
52725;DHT22;38621;52.830;6.914;2022-08-05T14:26:55;21.40;95.80
52725;DHT22;38621;52.830;6.914;2022-08-05T14:29:21;21.30;95.10
52725;DHT22;38621;52.830;6.914;2022-08-05T14:31:46;21.20;95.00
52725;DHT22;38621;52.830;6.914;2022-08-05T14:34:12;21.20;95.10
52725;DHT22;38621;52.830;6.914;2022-08-05T14:36:38;21.10;95.20
52725;DHT22;38621;52.830;6.914;2022-08-05T14:39:03;21.10;95.50
52725;DHT22;38621;52.830;6.914;2022-08-05T14:41:31;21.10;95.60
52725;DHT22;38621;52.830;6.914;2022-08-05T14:43:56;21.00;94.80
52725;DHT22;38621;52.830;6.914;2022-08-05T14:46:24;21.10;94.40
52725;DHT22;38621;52.830;6.914;2022-08-05T14:48:50;21.20;94.70
52725;DHT22;38621;52.830;6.914;2022-08-05T14:51:16;21.30;95.00
52725;DHT22;38621;52.830;6.914;2022-08-05T14:53:42;21.30;95.20
52725;DHT22;38621;52.830;6.914;2022-08-05T14:56:07;21.30;95.10
52725;DHT22;38621;52.830;6.914;2022-08-05T14:58:33;21.50;94.70
52725;DHT22;38621;52.830;6.914;2022-08-05T15:00:59;21.50;94.60
52725;DHT22;38621;52.830;6.914;2022-08-05T15:03:26;21.60;94.80
52725;DHT22;38621;52.830;6.914;2022-08-05T15:05:51;21.70;95.20
52725;DHT22;38621;52.830;6.914;2022-08-05T15:08:17;21.70;95.40
52725;DHT22;38621;52.830;6.914;2022-08-05T15:10:43;21.60;95.20
52725;DHT22;38621;52.830;6.914;2022-08-05T15:13:08;21.40;95.50
52725;DHT22;38621;52.830;6.914;2022-08-05T15:15:34;21.40;95.80
52725;DHT22;38621;52.830;6.914;2022-08-05T15:18:00;21.40;95.70
52725;DHT22;38621;52.830;6.914;2022-08-05T15:20:25;21.60;95.90
52725;DHT22;38621;52.830;6.914;2022-08-05T15:22:51;21.80;96.10
52725;DHT22;38621;52.830;6.914;2022-08-05T15:25:17;21.90;96.10
52725;DHT22;38621;52.830;6.914;2022-08-05T15:27:43;21.90;96.20
52725;DHT22;38621;52.830;6.914;2022-08-05T15:30:09;21.80;96.10
52725;DHT22;38621;52.830;6.914;2022-08-05T15:32:36;21.90;96.10
52725;DHT22;38621;52.830;6.914;2022-08-05T15:35:02;22.00;96.50
52725;DHT22;38621;52.830;6.914;2022-08-05T15:37:28;22.10;96.40
52725;DHT22;38621;52.830;6.914;2022-08-05T15:39:53;22.00;96.00
52725;DHT22;38621;52.830;6.914;2022-08-05T15:42:22;21.80;96.20
52725;DHT22;38621;52.830;6.914;2022-08-05T15:44:48;21.80;96.20
52725;DHT22;38621;52.830;6.914;2022-08-05T15:47:14;22.10;96.00
52725;DHT22;38621;52.830;6.914;2022-08-05T15:49:40;22.60;95.10
52725;DHT22;38621;52.830;6.914;2022-08-05T15:52:06;22.80;94.90
52725;DHT22;38621;52.830;6.914;2022-08-05T15:54:32;22.70;94.70
52725;DHT22;38621;52.830;6.914;2022-08-05T15:56:58;22.50;94.80
52725;DHT22;38621;52.830;6.914;2022-08-05T15:59:24;22.60;94.80
52725;DHT22;38621;52.830;6.914;2022-08-05T16:01:50;22.70;95.10
52725;DHT22;38621;52.830;6.914;2022-08-05T16:04:16;23.00;94.20
52725;DHT22;38621;52.830;6.914;2022-08-05T16:06:41;23.40;93.60
52725;DHT22;38621;52.830;6.914;2022-08-05T16:09:07;24.00;93.30
52725;DHT22;38621;52.830;6.914;2022-08-05T16:11:35;24.70;92.70